createdAt,value
2018-08-13T00:00:53.339Z,52.23
2018-08-13T00:03:19.933Z,52.17
2018-08-13T00:05:46.308Z,52.05
2018-08-13T00:08:12.678Z,52.14
2018-08-13T00:10:39.003Z,52.10
2018-08-13T00:13:05.317Z,52.13
2018-08-13T00:15:31.667Z,52.08
2018-08-13T00:17:58.034Z,52.03
2018-08-13T00:20:24.374Z,51.97
2018-08-13T00:22:50.699Z,52.06
2018-08-13T00:25:17.021Z,51.95
2018-08-13T00:27:43.424Z,52.00
2018-08-13T00:30:09.801Z,52.02
2018-08-13T00:32:36.149Z,52.01
2018-08-13T00:35:02.511Z,52.07
2018-08-13T00:37:29.094Z,52.13
2018-08-13T00:39:55.498Z,52.09
2018-08-13T00:42:21.920Z,52.14
2018-08-13T00:44:48.340Z,52.06
2018-08-13T00:47:14.680Z,52.14
2018-08-13T00:49:41.017Z,52.14
2018-08-13T00:52:07.358Z,52.11
2018-08-13T00:54:33.688Z,52.14
2018-08-13T00:57:00.160Z,52.17
2018-08-13T00:59:26.492Z,52.12
2018-08-13T01:01:52.871Z,52.17
2018-08-13T01:04:19.239Z,52.19
2018-08-13T01:06:45.643Z,52.24
2018-08-13T01:09:12.079Z,52.22
2018-08-13T01:11:38.455Z,52.20
2018-08-13T01:14:04.868Z,52.31
2018-08-13T01:16:31.378Z,52.42
2018-08-13T01:18:57.755Z,52.23
2018-08-13T01:21:24.140Z,52.30
2018-08-13T01:23:50.472Z,52.41
2018-08-13T01:26:16.869Z,52.49
2018-08-13T01:28:43.263Z,52.46
2018-08-13T01:31:09.694Z,52.40
2018-08-13T01:33:36.027Z,52.43
2018-08-13T01:36:02.694Z,52.46
2018-08-13T01:38:29.024Z,52.40
2018-08-13T01:40:55.423Z,52.46
2018-08-13T01:43:21.751Z,52.36
2018-08-13T01:45:48.078Z,52.43
2018-08-13T01:48:14.514Z,52.38
2018-08-13T01:50:40.899Z,52.42
2018-08-13T01:53:07.364Z,52.40
2018-08-13T01:55:33.723Z,52.39
2018-08-13T01:58:00.051Z,52.44
2018-08-13T02:00:26.409Z,52.33
2018-08-13T02:02:52.885Z,52.33
2018-08-13T02:05:19.255Z,52.36
2018-08-13T02:07:45.593Z,52.29
2018-08-13T02:10:11.906Z,52.34
2018-08-13T02:12:38.342Z,52.31
2018-08-13T02:15:04.878Z,52.35
2018-08-13T02:17:31.314Z,52.32
2018-08-13T02:19:57.703Z,52.34
2018-08-13T02:22:24.045Z,52.33
2018-08-13T02:24:50.432Z,52.48
2018-08-13T02:27:16.767Z,52.37
2018-08-13T02:29:43.142Z,52.34
2018-08-13T02:32:09.543Z,52.32
2018-08-13T02:34:35.931Z,52.27
2018-08-13T02:37:02.273Z,52.27
2018-08-13T02:39:28.660Z,52.27
2018-08-13T02:41:55.055Z,52.35
2018-08-13T02:44:21.583Z,52.33
2018-08-13T02:46:47.960Z,52.30
2018-08-13T02:49:14.388Z,52.30
2018-08-13T02:51:40.901Z,52.30
2018-08-13T02:54:07.347Z,52.36
2018-08-13T02:56:33.698Z,52.37
2018-08-13T02:59:00.069Z,52.33
2018-08-13T03:01:26.459Z,52.43
2018-08-13T03:03:52.822Z,52.35
2018-08-13T03:06:19.203Z,52.41
2018-08-13T03:08:45.571Z,52.32
2018-08-13T03:11:11.942Z,52.37
2018-08-13T03:13:38.335Z,52.28
2018-08-13T03:16:04.750Z,52.28
2018-08-13T03:18:31.135Z,52.20
2018-08-13T03:20:57.511Z,52.27
2018-08-13T03:23:23.844Z,52.29
2018-08-13T03:25:50.307Z,52.31
2018-08-13T03:28:16.704Z,52.36
2018-08-13T03:30:43.144Z,52.20
2018-08-13T03:33:09.484Z,52.17
2018-08-13T03:35:35.871Z,52.08
2018-08-13T03:38:02.310Z,51.95
2018-08-13T03:40:28.705Z,51.83
2018-08-13T03:42:55.108Z,51.82
2018-08-13T03:45:21.475Z,51.79
2018-08-13T03:47:47.798Z,51.51
2018-08-13T03:50:14.262Z,51.43
2018-08-13T03:52:40.628Z,51.33
2018-08-13T03:55:06.995Z,51.40
2018-08-13T03:57:33.352Z,51.07
2018-08-13T03:59:59.733Z,51.13
2018-08-13T04:02:26.310Z,50.88
2018-08-13T04:04:52.832Z,50.63
2018-08-13T04:07:19.257Z,50.51
2018-08-13T04:09:45.587Z,50.27
2018-08-13T04:12:12.025Z,49.83
2018-08-13T04:14:38.483Z,49.44
2018-08-13T04:17:04.816Z,49.33
2018-08-13T04:19:31.199Z,49.34
2018-08-13T04:21:57.521Z,49.21
2018-08-13T04:24:23.881Z,49.11
2018-08-13T04:26:50.380Z,48.85
2018-08-13T04:29:16.776Z,48.66
2018-08-13T04:31:43.178Z,48.56
2018-08-13T04:34:09.539Z,48.42
2018-08-13T04:36:35.897Z,48.35
2018-08-13T04:39:02.265Z,48.21
2018-08-13T04:41:28.599Z,48.08
2018-08-13T04:43:54.986Z,48.12
2018-08-13T04:46:21.329Z,48.02
2018-08-13T04:48:47.705Z,48.11
2018-08-13T04:51:14.086Z,48.29
2018-08-13T04:53:40.435Z,48.35
2018-08-13T04:56:07.053Z,48.47
2018-08-13T04:58:33.431Z,48.57
2018-08-13T05:00:59.785Z,48.59
2018-08-13T05:03:26.192Z,48.50
2018-08-13T05:05:52.521Z,48.39
2018-08-13T05:08:18.846Z,48.44
2018-08-13T05:10:45.255Z,48.34
2018-08-13T05:13:11.723Z,48.27
2018-08-13T05:15:38.079Z,48.37
2018-08-13T05:18:04.488Z,48.21
2018-08-13T05:20:30.838Z,48.15
2018-08-13T05:22:57.216Z,48.15
2018-08-13T05:25:23.581Z,48.12
2018-08-13T05:27:49.991Z,48.12
2018-08-13T05:30:16.495Z,48.17
2018-08-13T05:32:42.932Z,48.12
2018-08-13T05:35:09.301Z,48.14
2018-08-13T05:37:35.811Z,48.12
2018-08-13T05:40:02.188Z,48.05
2018-08-13T05:42:28.714Z,47.96
2018-08-13T05:44:55.133Z,48.02
2018-08-13T05:47:21.570Z,48.02
2018-08-13T05:49:47.928Z,48.09
2018-08-13T05:52:14.299Z,48.21
2018-08-13T05:54:40.792Z,48.02
2018-08-13T05:57:07.406Z,47.94
2018-08-13T05:59:33.855Z,47.99
2018-08-13T06:02:00.207Z,47.87
2018-08-13T06:04:26.627Z,47.95
2018-08-13T06:06:53.038Z,47.83
2018-08-13T06:09:19.376Z,47.60
2018-08-13T06:11:45.855Z,47.73
2018-08-13T06:14:12.146Z,47.57
2018-08-13T06:16:38.483Z,47.57
2018-08-13T06:19:04.835Z,47.73
2018-08-13T06:21:31.285Z,48.12
2018-08-13T06:23:57.692Z,47.75
2018-08-13T06:26:24.101Z,47.63
2018-08-13T06:28:50.497Z,47.70
2018-08-13T06:31:16.887Z,47.65
2018-08-13T06:33:43.332Z,47.78
2018-08-13T06:36:09.959Z,47.82
2018-08-13T06:38:36.360Z,47.70
2018-08-13T06:41:02.910Z,47.84
2018-08-13T06:43:30.023Z,47.58
2018-08-13T06:45:56.468Z,47.63
2018-08-13T06:48:22.862Z,47.70
2018-08-13T06:50:49.238Z,47.68
2018-08-13T06:53:15.600Z,47.91
2018-08-13T06:55:41.995Z,47.61
2018-08-13T06:58:08.366Z,47.67
2018-08-13T07:00:34.880Z,47.52
2018-08-13T07:03:01.283Z,47.41
2018-08-13T07:05:27.614Z,47.43
2018-08-13T07:07:53.990Z,47.65
2018-08-13T07:10:20.407Z,47.47
2018-08-13T07:12:46.830Z,47.56
2018-08-13T07:15:13.255Z,47.66
2018-08-13T07:17:39.650Z,47.40
2018-08-13T07:20:06.036Z,47.58
2018-08-13T07:22:32.499Z,47.41
2018-08-13T07:24:58.817Z,47.61
2018-08-13T07:27:26.305Z,47.88
2018-08-13T07:29:52.736Z,48.16
2018-08-13T07:32:19.202Z,48.05
2018-08-13T07:34:45.611Z,48.36
2018-08-13T07:37:12.085Z,48.47
2018-08-13T07:39:38.449Z,48.47
2018-08-13T07:42:04.911Z,48.28
2018-08-13T07:44:31.375Z,48.22
2018-08-13T07:46:57.941Z,48.50
2018-08-13T07:49:24.539Z,48.52
2018-08-13T07:51:51.074Z,48.44
2018-08-13T07:54:17.366Z,48.49
2018-08-13T07:56:44.005Z,48.63
2018-08-13T07:59:10.518Z,48.79
2018-08-13T08:01:37.140Z,48.81
2018-08-13T08:04:03.492Z,48.92
2018-08-13T08:06:29.909Z,49.00
2018-08-13T08:08:56.308Z,48.72
2018-08-13T08:11:23.587Z,48.95
2018-08-13T08:13:49.953Z,48.99
2018-08-13T08:16:16.425Z,48.99
2018-08-13T08:18:43.010Z,48.98
2018-08-13T08:21:09.392Z,48.99
2018-08-13T08:23:35.873Z,48.88
2018-08-13T08:26:02.220Z,49.19
2018-08-13T08:28:28.618Z,49.06
2018-08-13T08:30:55.087Z,48.99
2018-08-13T08:33:21.461Z,49.23
2018-08-13T08:35:47.858Z,49.32
2018-08-13T08:38:14.325Z,49.17
2018-08-13T08:40:40.799Z,49.08
2018-08-13T08:43:07.087Z,49.47
2018-08-13T08:45:33.421Z,49.94
2018-08-13T08:47:59.946Z,49.99
2018-08-13T08:50:26.318Z,49.98
2018-08-13T08:52:52.697Z,49.99
2018-08-13T08:55:19.100Z,50.29
2018-08-13T08:57:45.505Z,49.73
2018-08-13T09:00:11.866Z,49.76
2018-08-13T09:02:38.274Z,50.34
2018-08-13T09:05:04.689Z,50.29
2018-08-13T09:07:31.081Z,50.06
2018-08-13T09:09:57.440Z,50.37
2018-08-13T09:12:24.115Z,50.01
2018-08-13T09:14:50.446Z,50.30
2018-08-13T09:17:16.836Z,50.53
2018-08-13T09:19:43.198Z,50.27
2018-08-13T09:22:09.703Z,50.28
2018-08-13T09:24:36.077Z,50.42
2018-08-13T09:27:02.522Z,50.33
2018-08-13T09:29:28.929Z,50.39
2018-08-13T09:31:55.376Z,50.16
2018-08-13T09:34:21.769Z,49.90
2018-08-13T09:36:48.320Z,50.08
2018-08-13T09:39:14.581Z,50.05
2018-08-13T09:41:41.014Z,50.11
2018-08-13T09:44:07.480Z,50.11
2018-08-13T09:46:33.906Z,50.01
2018-08-13T09:49:00.411Z,50.21
2018-08-13T09:51:26.946Z,49.79
2018-08-13T09:53:53.491Z,50.21
2018-08-13T09:56:20.019Z,49.92
2018-08-13T09:58:46.457Z,49.71
2018-08-13T10:01:12.896Z,49.91
2018-08-13T10:03:39.325Z,49.75
2018-08-13T10:06:05.734Z,49.84
2018-08-13T10:08:32.091Z,49.53
2018-08-13T10:10:58.565Z,49.70
2018-08-13T10:13:24.817Z,49.53
2018-08-13T10:15:51.151Z,49.27
2018-08-13T10:18:17.497Z,49.34
2018-08-13T10:20:43.916Z,49.40
2018-08-13T10:23:10.289Z,49.39
2018-08-13T10:25:36.723Z,49.34
2018-08-13T10:28:03.056Z,49.57
2018-08-13T10:30:29.488Z,49.53
2018-08-13T10:32:55.890Z,49.29
2018-08-13T10:35:22.300Z,49.03
2018-08-13T10:37:48.737Z,49.18
2018-08-13T10:40:15.086Z,49.23
2018-08-13T10:42:41.539Z,49.24
2018-08-13T10:45:07.908Z,49.01
2018-08-13T10:47:35.114Z,48.63
2018-08-13T10:50:01.596Z,48.63
2018-08-13T10:52:28.071Z,48.37
2018-08-13T10:54:54.607Z,48.32
2018-08-13T10:57:21.064Z,48.57
2018-08-13T10:59:47.600Z,48.35
2018-08-13T11:02:13.982Z,48.25
2018-08-13T11:04:40.383Z,48.26
2018-08-13T11:07:06.807Z,48.11
2018-08-13T11:09:33.250Z,48.21
2018-08-13T11:11:59.611Z,48.24
2018-08-13T11:14:25.994Z,48.28
2018-08-13T11:16:52.429Z,48.00
2018-08-13T11:19:18.834Z,48.38
2018-08-13T11:21:45.274Z,48.21
2018-08-13T11:24:11.653Z,48.37
2018-08-13T11:26:38.284Z,47.97
2018-08-13T11:29:04.692Z,48.02
2018-08-13T11:31:31.047Z,48.39
2018-08-13T11:33:57.451Z,47.97
2018-08-13T11:36:23.831Z,47.96
2018-08-13T11:38:50.211Z,47.87
2018-08-13T11:41:16.585Z,47.84
2018-08-13T11:43:42.937Z,47.74
2018-08-13T11:46:09.408Z,47.60
2018-08-13T11:48:35.763Z,47.44
2018-08-13T11:51:02.196Z,47.69
2018-08-13T11:53:28.539Z,47.35
2018-08-13T11:55:55.043Z,47.58
2018-08-13T11:58:21.455Z,47.21
2018-08-13T12:00:47.848Z,47.12
2018-08-13T12:03:14.266Z,46.98
2018-08-13T12:05:40.668Z,47.02
2018-08-13T12:08:07.049Z,47.04
2018-08-13T12:10:34.643Z,46.84
2018-08-13T12:13:01.629Z,47.08
2018-08-13T12:15:28.069Z,46.76
2018-08-13T12:17:54.474Z,47.10
2018-08-13T12:20:20.888Z,46.99
2018-08-13T12:22:47.288Z,47.00
2018-08-13T12:25:13.954Z,46.84
2018-08-13T12:27:40.350Z,46.76
2018-08-13T12:30:06.841Z,47.13
2018-08-13T12:32:33.413Z,46.73
2018-08-13T12:35:00.015Z,46.82
2018-08-13T12:37:26.390Z,46.74
2018-08-13T12:39:52.849Z,46.63
2018-08-13T12:42:19.332Z,46.53
2018-08-13T12:44:45.758Z,46.86
2018-08-13T12:47:12.157Z,46.67
2018-08-13T12:49:38.615Z,46.60
2018-08-13T12:52:05.016Z,46.58
2018-08-13T12:54:31.538Z,46.62
2018-08-13T12:56:58.019Z,46.79
2018-08-13T12:59:24.533Z,46.57
2018-08-13T13:01:50.887Z,46.63
2018-08-13T13:04:17.319Z,46.64
2018-08-13T13:06:43.855Z,46.64
2018-08-13T13:09:10.319Z,46.44
2018-08-13T13:11:36.838Z,46.32
2018-08-13T13:14:03.217Z,46.80
2018-08-13T13:16:29.660Z,46.45
2018-08-13T13:18:56.114Z,46.12
2018-08-13T13:21:22.524Z,46.41
2018-08-13T13:23:48.958Z,46.35
2018-08-13T13:26:15.313Z,46.44
2018-08-13T13:28:41.695Z,46.37
2018-08-13T13:31:08.071Z,46.27
2018-08-13T13:33:34.483Z,46.12
2018-08-13T13:36:00.940Z,46.44
2018-08-13T13:38:27.288Z,46.35
2018-08-13T13:40:53.700Z,46.47
2018-08-13T13:43:20.125Z,46.46
2018-08-13T13:45:46.550Z,46.19
2018-08-13T13:48:12.891Z,46.21
2018-08-13T13:50:39.233Z,46.20
2018-08-13T13:53:05.624Z,46.51
2018-08-13T13:55:32.023Z,46.27
2018-08-13T13:57:58.457Z,46.31
2018-08-13T14:00:24.819Z,46.20
2018-08-13T14:02:51.271Z,46.15
2018-08-13T14:05:17.607Z,46.04
2018-08-13T14:07:43.968Z,46.41
2018-08-13T14:10:10.391Z,46.21
2018-08-13T14:12:36.766Z,46.28
2018-08-13T14:15:03.111Z,46.25
2018-08-13T14:17:29.560Z,46.16
2018-08-13T14:19:56.041Z,46.14
2018-08-13T14:22:22.497Z,46.22
2018-08-13T14:24:48.910Z,45.93
2018-08-13T14:27:15.258Z,46.03
2018-08-13T14:29:41.762Z,45.99
2018-08-13T14:32:08.196Z,46.11
2018-08-13T14:34:34.606Z,46.09
2018-08-13T14:37:00.958Z,45.96
2018-08-13T14:39:27.358Z,45.89
2018-08-13T14:41:53.762Z,45.83
2018-08-13T14:44:20.288Z,45.88
2018-08-13T14:46:46.712Z,45.70
2018-08-13T14:49:13.123Z,45.80
2018-08-13T14:51:40.494Z,45.82
2018-08-13T14:54:06.965Z,45.77
2018-08-13T14:56:33.415Z,45.73
2018-08-13T14:58:59.778Z,45.68
2018-08-13T15:01:26.227Z,45.65
2018-08-13T15:03:52.863Z,45.64
2018-08-13T15:06:19.490Z,45.58
2018-08-13T15:08:46.016Z,45.59
2018-08-13T15:11:12.500Z,45.65
2018-08-13T15:13:38.934Z,45.70
2018-08-13T15:16:05.297Z,45.51
2018-08-13T15:18:31.673Z,45.70
2018-08-13T15:20:58.295Z,45.58
2018-08-13T15:23:24.661Z,45.65
2018-08-13T15:25:51.056Z,45.72
2018-08-13T15:28:17.489Z,45.81
2018-08-13T15:30:44.371Z,45.80
2018-08-13T15:33:10.948Z,45.78
2018-08-13T15:35:37.322Z,45.73
2018-08-13T15:38:03.711Z,45.75
2018-08-13T15:40:30.084Z,45.84
2018-08-13T15:42:56.433Z,45.85
2018-08-13T15:45:22.807Z,45.93
2018-08-13T15:47:49.288Z,45.82
2018-08-13T15:50:15.668Z,45.99
2018-08-13T15:52:42.065Z,46.06
2018-08-13T15:55:08.461Z,45.80
2018-08-13T15:57:34.895Z,45.87
2018-08-13T16:00:01.294Z,45.86
2018-08-13T16:02:27.633Z,45.92
2018-08-13T16:04:53.965Z,45.75
2018-08-13T16:07:20.414Z,45.74
2018-08-13T16:09:46.951Z,45.90
2018-08-13T16:12:13.406Z,45.91
2018-08-13T16:14:39.742Z,46.22
2018-08-13T16:17:06.090Z,46.09
2018-08-13T16:19:32.481Z,46.28
2018-08-13T16:21:58.846Z,46.02
2018-08-13T16:24:25.219Z,46.10
2018-08-13T16:26:51.624Z,46.21
2018-08-13T16:29:18.010Z,46.10
2018-08-13T16:31:44.342Z,46.15
2018-08-13T16:34:10.685Z,46.08
2018-08-13T16:36:37.062Z,46.07
2018-08-13T16:39:03.451Z,46.24
2018-08-13T16:41:29.848Z,46.57
2018-08-13T16:43:56.240Z,46.65
2018-08-13T16:46:22.734Z,46.44
2018-08-13T16:48:49.079Z,46.28
2018-08-13T16:51:15.575Z,46.87
2018-08-13T16:53:41.954Z,46.85
2018-08-13T16:56:08.350Z,46.75
2018-08-13T16:58:34.704Z,46.37
2018-08-13T17:01:01.039Z,46.62
2018-08-13T17:03:27.431Z,46.66
2018-08-13T17:05:53.801Z,46.57
2018-08-13T17:08:20.219Z,46.60
2018-08-13T17:10:46.603Z,46.88
2018-08-13T17:13:13.021Z,46.68
2018-08-13T17:15:39.496Z,46.41
2018-08-13T17:18:05.823Z,46.73
2018-08-13T17:20:32.147Z,47.06
2018-08-13T17:22:58.481Z,47.25
2018-08-13T17:25:24.857Z,46.75
2018-08-13T17:27:51.266Z,47.25
2018-08-13T17:30:17.606Z,47.30
2018-08-13T17:32:43.963Z,47.22
2018-08-13T17:35:10.307Z,47.16
2018-08-13T17:37:36.655Z,47.38
2018-08-13T17:40:03.066Z,47.46
2018-08-13T17:42:29.419Z,47.37
2018-08-13T17:44:55.761Z,47.36
2018-08-13T17:47:22.093Z,47.63
2018-08-13T17:49:48.433Z,47.85
2018-08-13T17:52:14.812Z,47.60
2018-08-13T17:54:41.142Z,47.79
2018-08-13T17:57:08.347Z,47.66
2018-08-13T17:59:34.774Z,47.86
2018-08-13T18:02:01.100Z,47.91
2018-08-13T18:04:27.436Z,48.03
2018-08-13T18:06:53.767Z,48.11
2018-08-13T18:09:20.127Z,48.34
2018-08-13T18:11:46.465Z,48.14
2018-08-13T18:14:12.946Z,48.11
2018-08-13T18:16:39.321Z,48.40
2018-08-13T18:19:05.658Z,48.28
2018-08-13T18:21:32.012Z,48.44
2018-08-13T18:23:58.382Z,48.61
2018-08-13T18:26:24.821Z,48.60
2018-08-13T18:28:51.252Z,48.63
2018-08-13T18:31:17.590Z,48.81
2018-08-13T18:33:43.982Z,48.70
2018-08-13T18:36:10.384Z,48.47
2018-08-13T18:38:36.748Z,48.48
2018-08-13T18:41:03.078Z,48.41
2018-08-13T18:43:29.420Z,48.59
2018-08-13T18:45:55.784Z,48.49
2018-08-13T18:48:22.137Z,48.47
2018-08-13T18:50:48.455Z,48.57
2018-08-13T18:53:14.916Z,48.51
2018-08-13T18:55:41.261Z,48.50
2018-08-13T18:58:07.596Z,48.53
2018-08-13T19:00:33.928Z,48.58
2018-08-13T19:03:00.324Z,48.50
2018-08-13T19:05:26.731Z,48.47
2018-08-13T19:07:53.127Z,48.39
2018-08-13T19:10:19.450Z,48.37
2018-08-13T19:12:45.786Z,48.24
2018-08-13T19:15:12.188Z,48.14
2018-08-13T19:17:38.620Z,48.20
2018-08-13T19:20:04.963Z,47.99
2018-08-13T19:22:31.363Z,48.05
2018-08-13T19:24:57.728Z,47.94
2018-08-13T19:27:24.100Z,47.81
2018-08-13T19:29:50.493Z,47.68
2018-08-13T19:32:16.927Z,47.63
2018-08-13T19:34:43.284Z,47.54
2018-08-13T19:37:09.628Z,47.55
2018-08-13T19:39:35.988Z,47.48
2018-08-13T19:42:02.393Z,47.41
2018-08-13T19:44:28.825Z,47.34
2018-08-13T19:46:55.181Z,47.23
2018-08-13T19:49:21.552Z,47.15
2018-08-13T19:51:47.903Z,47.46
2018-08-13T19:54:14.235Z,47.15
2018-08-13T19:56:40.673Z,47.09
2018-08-13T19:59:07.032Z,46.93
2018-08-13T20:01:33.348Z,46.85
2018-08-13T20:03:59.721Z,46.83
2018-08-13T20:06:26.180Z,46.91
2018-08-13T20:08:52.574Z,46.94
2018-08-13T20:11:18.982Z,47.02
2018-08-13T20:13:45.366Z,46.67
2018-08-13T20:16:11.749Z,47.00
2018-08-13T20:18:38.132Z,46.64
2018-08-13T20:21:04.557Z,46.66
2018-08-13T20:23:30.881Z,46.68
2018-08-13T20:25:57.215Z,46.58
2018-08-13T20:28:23.574Z,46.55
2018-08-13T20:30:50.236Z,46.67
2018-08-13T20:33:16.591Z,46.49
2018-08-13T20:35:42.953Z,46.51
2018-08-13T20:38:09.353Z,46.47
2018-08-13T20:40:35.680Z,46.43
2018-08-13T20:43:02.094Z,46.59
2018-08-13T20:45:28.452Z,46.58
2018-08-13T20:47:55.197Z,46.45
2018-08-13T20:50:21.564Z,46.49
2018-08-13T20:52:47.911Z,46.39
2018-08-13T20:55:14.309Z,46.27
2018-08-13T20:57:40.665Z,46.34
2018-08-13T21:00:06.991Z,46.28
2018-08-13T21:02:33.364Z,46.23
2018-08-13T21:04:59.841Z,46.28
2018-08-13T21:07:26.182Z,46.29
2018-08-13T21:09:52.534Z,46.22
2018-08-13T21:12:18.869Z,46.24
2018-08-13T21:14:45.201Z,46.19
2018-08-13T21:17:11.537Z,46.10
2018-08-13T21:19:37.926Z,46.15
2018-08-13T21:22:04.305Z,46.06
2018-08-13T21:24:30.687Z,46.13
2018-08-13T21:26:57.028Z,46.13
2018-08-13T21:29:23.365Z,45.96
2018-08-13T21:31:49.697Z,46.09
2018-08-13T21:34:16.090Z,46.02
2018-08-13T21:36:42.458Z,45.99
2018-08-13T21:39:08.840Z,46.00
2018-08-13T21:41:35.183Z,45.91
2018-08-13T21:44:01.527Z,45.96
2018-08-13T21:46:27.858Z,45.93
2018-08-13T21:48:54.183Z,45.99
2018-08-13T21:51:20.536Z,45.84
2018-08-13T21:53:46.859Z,45.80
2018-08-13T21:56:13.512Z,45.77
2018-08-13T21:58:39.954Z,45.77
2018-08-13T22:01:06.300Z,45.86
2018-08-13T22:03:32.635Z,45.80
2018-08-13T22:05:59.137Z,45.80
2018-08-13T22:08:25.635Z,45.81
2018-08-13T22:10:52.034Z,45.78
2018-08-13T22:13:18.447Z,45.85
2018-08-13T22:15:44.759Z,45.85
2018-08-13T22:18:11.092Z,45.80
2018-08-13T22:20:37.489Z,45.79
2018-08-13T22:23:03.843Z,45.69
2018-08-13T22:25:30.178Z,45.77
2018-08-13T22:27:56.554Z,45.72
2018-08-13T22:30:22.890Z,45.80
2018-08-13T22:32:49.283Z,45.73
2018-08-13T22:35:15.676Z,45.79
2018-08-13T22:37:42.169Z,45.75
2018-08-13T22:40:08.528Z,45.62
2018-08-13T22:42:34.940Z,45.69
2018-08-13T22:45:01.392Z,45.59
2018-08-13T22:47:27.848Z,45.67
2018-08-13T22:49:54.199Z,45.72
2018-08-13T22:52:20.758Z,45.67
2018-08-13T22:54:47.116Z,45.66
2018-08-13T22:57:13.512Z,45.65
2018-08-13T22:59:39.899Z,45.60
2018-08-13T23:02:06.231Z,45.64
2018-08-13T23:04:32.635Z,45.67
2018-08-13T23:06:59.010Z,45.74
2018-08-13T23:09:25.443Z,45.85
2018-08-13T23:11:51.768Z,45.73
2018-08-13T23:14:18.234Z,45.71
2018-08-13T23:16:44.667Z,45.86
2018-08-13T23:19:11.012Z,45.68
2018-08-13T23:21:37.344Z,45.79
2018-08-13T23:24:03.771Z,45.85
2018-08-13T23:26:30.175Z,45.85
2018-08-13T23:28:56.503Z,45.79
2018-08-13T23:31:22.851Z,45.90
2018-08-13T23:33:49.290Z,45.84
2018-08-13T23:36:15.648Z,45.97
2018-08-13T23:38:42.053Z,45.95
2018-08-13T23:41:08.385Z,45.90
2018-08-13T23:43:34.785Z,45.89
2018-08-13T23:46:01.223Z,46.00
2018-08-13T23:48:27.573Z,45.96
2018-08-13T23:50:53.912Z,45.96
2018-08-13T23:53:20.308Z,46.02
2018-08-13T23:55:46.737Z,45.96
2018-08-13T23:58:13.153Z,45.98
